sensor_id;sensor_type;location;lat;lon;timestamp;P1;durP1;ratioP1;P2;durP2;ratioP2
15716;SDS011;7960;50.908;4.204;2023-04-24T00:01:05;21.00;;;14.33;;
15716;SDS011;7960;50.908;4.204;2023-04-24T00:03:32;22.87;;;15.10;;
15716;SDS011;7960;50.908;4.204;2023-04-24T00:05:59;21.67;;;14.37;;
15716;SDS011;7960;50.908;4.204;2023-04-24T00:08:27;24.23;;;15.10;;
15716;SDS011;7960;50.908;4.204;2023-04-24T00:10:56;24.07;;;14.50;;
15716;SDS011;7960;50.908;4.204;2023-04-24T00:13:23;22.07;;;14.03;;
15716;SDS011;7960;50.908;4.204;2023-04-24T00:15:50;18.43;;;13.70;;
15716;SDS011;7960;50.908;4.204;2023-04-24T00:18:17;19.53;;;13.70;;
15716;SDS011;7960;50.908;4.204;2023-04-24T00:20:44;20.27;;;13.63;;
15716;SDS011;7960;50.908;4.204;2023-04-24T00:23:11;23.37;;;13.77;;
15716;SDS011;7960;50.908;4.204;2023-04-24T00:25:38;25.03;;;14.13;;
15716;SDS011;7960;50.908;4.204;2023-04-24T00:28:07;24.63;;;15.57;;
15716;SDS011;7960;50.908;4.204;2023-04-24T00:30:34;18.63;;;13.60;;
15716;SDS011;7960;50.908;4.204;2023-04-24T00:33:01;21.53;;;15.23;;
15716;SDS011;7960;50.908;4.204;2023-04-24T00:35:28;21.83;;;13.77;;
15716;SDS011;7960;50.908;4.204;2023-04-24T00:37:55;20.67;;;14.10;;
15716;SDS011;7960;50.908;4.204;2023-04-24T00:40:22;25.87;;;14.03;;
15716;SDS011;7960;50.908;4.204;2023-04-24T00:42:49;24.63;;;14.23;;
15716;SDS011;7960;50.908;4.204;2023-04-24T00:45:17;22.30;;;14.57;;
15716;SDS011;7960;50.908;4.204;2023-04-24T00:47:44;20.40;;;14.20;;
15716;SDS011;7960;50.908;4.204;2023-04-24T00:50:12;17.27;;;13.63;;
15716;SDS011;7960;50.908;4.204;2023-04-24T00:52:41;21.57;;;13.30;;
15716;SDS011;7960;50.908;4.204;2023-04-24T00:55:08;20.23;;;14.07;;
15716;SDS011;7960;50.908;4.204;2023-04-24T00:57:35;21.10;;;13.63;;
15716;SDS011;7960;50.908;4.204;2023-04-24T01:00:03;21.50;;;14.73;;
15716;SDS011;7960;50.908;4.204;2023-04-24T01:02:36;22.93;;;14.03;;
15716;SDS011;7960;50.908;4.204;2023-04-24T01:05:09;22.67;;;14.17;;
15716;SDS011;7960;50.908;4.204;2023-04-24T01:07:36;20.67;;;13.60;;
15716;SDS011;7960;50.908;4.204;2023-04-24T01:10:05;19.43;;;13.63;;
15716;SDS011;7960;50.908;4.204;2023-04-24T01:12:33;20.17;;;13.67;;
15716;SDS011;7960;50.908;4.204;2023-04-24T01:15:00;24.43;;;14.07;;
15716;SDS011;7960;50.908;4.204;2023-04-24T01:17:28;20.53;;;13.60;;
15716;SDS011;7960;50.908;4.204;2023-04-24T01:19:56;22.10;;;14.13;;
15716;SDS011;7960;50.908;4.204;2023-04-24T01:22:24;20.63;;;13.70;;
15716;SDS011;7960;50.908;4.204;2023-04-24T01:24:52;21.00;;;12.93;;
15716;SDS011;7960;50.908;4.204;2023-04-24T01:27:19;22.90;;;13.93;;
15716;SDS011;7960;50.908;4.204;2023-04-24T01:29:46;18.53;;;13.60;;
15716;SDS011;7960;50.908;4.204;2023-04-24T01:32:14;21.30;;;13.97;;
15716;SDS011;7960;50.908;4.204;2023-04-24T01:34:41;19.87;;;12.97;;
15716;SDS011;7960;50.908;4.204;2023-04-24T01:37:10;18.53;;;13.03;;
15716;SDS011;7960;50.908;4.204;2023-04-24T01:39:38;17.70;;;12.07;;
15716;SDS011;7960;50.908;4.204;2023-04-24T01:42:05;15.23;;;11.63;;
15716;SDS011;7960;50.908;4.204;2023-04-24T01:44:33;16.97;;;10.93;;
15716;SDS011;7960;50.908;4.204;2023-04-24T01:47:00;19.83;;;11.03;;
15716;SDS011;7960;50.908;4.204;2023-04-24T01:49:27;14.03;;;10.03;;
15716;SDS011;7960;50.908;4.204;2023-04-24T01:51:54;11.40;;;9.20;;
15716;SDS011;7960;50.908;4.204;2023-04-24T01:54:21;14.53;;;9.40;;
15716;SDS011;7960;50.908;4.204;2023-04-24T01:56:49;11.63;;;9.13;;
15716;SDS011;7960;50.908;4.204;2023-04-24T01:59:17;12.23;;;8.77;;
15716;SDS011;7960;50.908;4.204;2023-04-24T02:01:45;14.83;;;9.13;;
15716;SDS011;7960;50.908;4.204;2023-04-24T02:04:12;18.23;;;9.40;;
15716;SDS011;7960;50.908;4.204;2023-04-24T02:06:40;13.47;;;9.60;;
15716;SDS011;7960;50.908;4.204;2023-04-24T02:09:07;12.77;;;9.57;;
15716;SDS011;7960;50.908;4.204;2023-04-24T02:11:34;13.90;;;9.80;;
15716;SDS011;7960;50.908;4.204;2023-04-24T02:14:02;12.23;;;9.53;;
15716;SDS011;7960;50.908;4.204;2023-04-24T02:16:29;14.50;;;10.50;;
15716;SDS011;7960;50.908;4.204;2023-04-24T02:18:57;13.70;;;10.50;;
15716;SDS011;7960;50.908;4.204;2023-04-24T02:21:24;15.67;;;10.00;;
15716;SDS011;7960;50.908;4.204;2023-04-24T02:23:52;14.10;;;10.60;;
15716;SDS011;7960;50.908;4.204;2023-04-24T02:26:19;12.57;;;9.70;;
15716;SDS011;7960;50.908;4.204;2023-04-24T02:28:46;16.90;;;10.33;;
15716;SDS011;7960;50.908;4.204;2023-04-24T02:31:14;15.33;;;10.37;;
15716;SDS011;7960;50.908;4.204;2023-04-24T02:33:41;20.30;;;11.40;;
15716;SDS011;7960;50.908;4.204;2023-04-24T02:36:08;17.43;;;10.90;;
15716;SDS011;7960;50.908;4.204;2023-04-24T02:38:35;21.93;;;11.30;;
15716;SDS011;7960;50.908;4.204;2023-04-24T02:41:02;15.93;;;10.60;;
15716;SDS011;7960;50.908;4.204;2023-04-24T02:43:31;15.63;;;10.63;;
15716;SDS011;7960;50.908;4.204;2023-04-24T02:45:58;14.97;;;10.40;;
15716;SDS011;7960;50.908;4.204;2023-04-24T02:48:27;15.43;;;10.40;;
15716;SDS011;7960;50.908;4.204;2023-04-24T02:50:54;18.93;;;9.83;;
15716;SDS011;7960;50.908;4.204;2023-04-24T02:53:22;16.17;;;10.37;;
15716;SDS011;7960;50.908;4.204;2023-04-24T02:55:49;15.53;;;10.37;;
15716;SDS011;7960;50.908;4.204;2023-04-24T02:58:16;14.63;;;10.00;;
15716;SDS011;7960;50.908;4.204;2023-04-24T03:00:45;13.40;;;9.83;;
15716;SDS011;7960;50.908;4.204;2023-04-24T03:03:12;17.53;;;9.83;;
15716;SDS011;7960;50.908;4.204;2023-04-24T03:05:41;15.03;;;10.00;;
15716;SDS011;7960;50.908;4.204;2023-04-24T03:08:08;15.33;;;9.57;;
15716;SDS011;7960;50.908;4.204;2023-04-24T03:10:36;14.93;;;10.13;;
15716;SDS011;7960;50.908;4.204;2023-04-24T03:13:03;15.47;;;10.30;;
15716;SDS011;7960;50.908;4.204;2023-04-24T03:15:30;12.53;;;8.23;;
15716;SDS011;7960;50.908;4.204;2023-04-24T03:17:57;14.63;;;10.13;;
15716;SDS011;7960;50.908;4.204;2023-04-24T03:20:24;14.37;;;10.10;;
15716;SDS011;7960;50.908;4.204;2023-04-24T03:22:52;14.17;;;9.80;;
15716;SDS011;7960;50.908;4.204;2023-04-24T03:25:19;13.70;;;9.00;;
15716;SDS011;7960;50.908;4.204;2023-04-24T03:27:46;13.90;;;9.47;;
15716;SDS011;7960;50.908;4.204;2023-04-24T03:30:13;12.63;;;9.30;;
15716;SDS011;7960;50.908;4.204;2023-04-24T03:32:40;10.90;;;9.23;;
15716;SDS011;7960;50.908;4.204;2023-04-24T03:35:07;11.00;;;8.90;;
15716;SDS011;7960;50.908;4.204;2023-04-24T03:37:34;11.33;;;8.63;;
15716;SDS011;7960;50.908;4.204;2023-04-24T03:40:03;15.73;;;9.43;;
15716;SDS011;7960;50.908;4.204;2023-04-24T03:42:31;10.17;;;8.30;;
15716;SDS011;7960;50.908;4.204;2023-04-24T03:44:57;14.37;;;8.83;;
15716;SDS011;7960;50.908;4.204;2023-04-24T03:47:24;10.27;;;8.13;;
15716;SDS011;7960;50.908;4.204;2023-04-24T03:49:51;8.57;;;7.50;;
15716;SDS011;7960;50.908;4.204;2023-04-24T03:52:19;8.90;;;7.60;;
15716;SDS011;7960;50.908;4.204;2023-04-24T03:54:46;9.73;;;6.93;;
15716;SDS011;7960;50.908;4.204;2023-04-24T03:57:14;10.30;;;7.60;;
15716;SDS011;7960;50.908;4.204;2023-04-24T03:59:41;9.43;;;6.70;;
15716;SDS011;7960;50.908;4.204;2023-04-24T04:02:08;9.93;;;7.33;;
15716;SDS011;7960;50.908;4.204;2023-04-24T04:04:35;10.80;;;7.40;;
15716;SDS011;7960;50.908;4.204;2023-04-24T04:07:02;9.93;;;7.60;;
15716;SDS011;7960;50.908;4.204;2023-04-24T04:09:30;12.27;;;7.70;;
15716;SDS011;7960;50.908;4.204;2023-04-24T04:11:57;10.30;;;7.53;;
15716;SDS011;7960;50.908;4.204;2023-04-24T04:14:26;12.20;;;7.67;;
15716;SDS011;7960;50.908;4.204;2023-04-24T04:16:53;9.77;;;7.43;;
15716;SDS011;7960;50.908;4.204;2023-04-24T04:19:20;9.07;;;7.57;;
15716;SDS011;7960;50.908;4.204;2023-04-24T04:21:47;9.23;;;7.20;;
15716;SDS011;7960;50.908;4.204;2023-04-24T04:24:18;10.30;;;7.60;;
15716;SDS011;7960;50.908;4.204;2023-04-24T04:26:45;11.53;;;7.77;;
15716;SDS011;7960;50.908;4.204;2023-04-24T04:29:12;13.07;;;7.33;;
15716;SDS011;7960;50.908;4.204;2023-04-24T04:31:41;10.10;;;8.07;;
15716;SDS011;7960;50.908;4.204;2023-04-24T04:34:08;12.57;;;8.50;;
15716;SDS011;7960;50.908;4.204;2023-04-24T04:36:36;12.93;;;8.57;;
15716;SDS011;7960;50.908;4.204;2023-04-24T04:39:05;14.23;;;9.20;;
15716;SDS011;7960;50.908;4.204;2023-04-24T04:41:32;16.70;;;9.57;;
15716;SDS011;7960;50.908;4.204;2023-04-24T04:44:00;15.70;;;10.73;;
15716;SDS011;7960;50.908;4.204;2023-04-24T04:46:29;17.30;;;11.23;;
15716;SDS011;7960;50.908;4.204;2023-04-24T04:49:00;18.23;;;11.00;;
15716;SDS011;7960;50.908;4.204;2023-04-24T04:51:27;19.13;;;11.50;;
15716;SDS011;7960;50.908;4.204;2023-04-24T04:53:55;17.90;;;12.20;;
15716;SDS011;7960;50.908;4.204;2023-04-24T04:56:22;19.47;;;12.03;;
15716;SDS011;7960;50.908;4.204;2023-04-24T04:58:49;20.60;;;12.40;;
15716;SDS011;7960;50.908;4.204;2023-04-24T05:01:15;19.50;;;12.73;;
15716;SDS011;7960;50.908;4.204;2023-04-24T05:03:43;19.77;;;12.30;;
15716;SDS011;7960;50.908;4.204;2023-04-24T05:06:12;19.40;;;11.93;;
15716;SDS011;7960;50.908;4.204;2023-04-24T05:08:38;18.47;;;12.33;;
15716;SDS011;7960;50.908;4.204;2023-04-24T05:11:06;18.23;;;12.33;;
15716;SDS011;7960;50.908;4.204;2023-04-24T05:13:33;17.10;;;12.30;;
15716;SDS011;7960;50.908;4.204;2023-04-24T05:16:00;22.53;;;12.97;;
15716;SDS011;7960;50.908;4.204;2023-04-24T05:18:27;17.77;;;12.50;;
15716;SDS011;7960;50.908;4.204;2023-04-24T05:20:54;19.03;;;12.70;;
15716;SDS011;7960;50.908;4.204;2023-04-24T05:23:22;22.80;;;12.03;;
15716;SDS011;7960;50.908;4.204;2023-04-24T05:25:49;24.00;;;12.90;;
15716;SDS011;7960;50.908;4.204;2023-04-24T05:28:16;20.37;;;12.27;;
15716;SDS011;7960;50.908;4.204;2023-04-24T05:30:43;18.70;;;11.97;;
15716;SDS011;7960;50.908;4.204;2023-04-24T05:33:10;20.70;;;12.03;;
15716;SDS011;7960;50.908;4.204;2023-04-24T05:35:39;20.37;;;11.87;;
15716;SDS011;7960;50.908;4.204;2023-04-24T05:38:10;16.80;;;11.33;;
15716;SDS011;7960;50.908;4.204;2023-04-24T05:40:39;18.37;;;11.57;;
15716;SDS011;7960;50.908;4.204;2023-04-24T05:43:06;18.27;;;11.93;;
15716;SDS011;7960;50.908;4.204;2023-04-24T05:45:33;21.43;;;12.10;;
15716;SDS011;7960;50.908;4.204;2023-04-24T05:48:01;18.63;;;12.27;;
15716;SDS011;7960;50.908;4.204;2023-04-24T05:50:28;18.60;;;11.67;;
15716;SDS011;7960;50.908;4.204;2023-04-24T05:52:55;20.47;;;11.93;;
15716;SDS011;7960;50.908;4.204;2023-04-24T05:55:23;20.67;;;12.13;;
15716;SDS011;7960;50.908;4.204;2023-04-24T05:57:51;17.80;;;11.97;;
15716;SDS011;7960;50.908;4.204;2023-04-24T06:00:18;20.87;;;12.53;;
15716;SDS011;7960;50.908;4.204;2023-04-24T06:02:46;19.60;;;12.50;;
15716;SDS011;7960;50.908;4.204;2023-04-24T06:05:13;19.63;;;12.33;;
15716;SDS011;7960;50.908;4.204;2023-04-24T06:07:40;19.93;;;12.37;;
15716;SDS011;7960;50.908;4.204;2023-04-24T06:10:07;21.73;;;12.87;;
15716;SDS011;7960;50.908;4.204;2023-04-24T06:12:35;18.93;;;11.80;;
15716;SDS011;7960;50.908;4.204;2023-04-24T06:15:04;22.87;;;12.40;;
15716;SDS011;7960;50.908;4.204;2023-04-24T06:17:32;21.73;;;13.50;;
15716;SDS011;7960;50.908;4.204;2023-04-24T06:19:59;21.60;;;12.53;;
15716;SDS011;7960;50.908;4.204;2023-04-24T06:22:26;20.33;;;12.77;;
15716;SDS011;7960;50.908;4.204;2023-04-24T06:24:53;26.67;;;13.70;;
15716;SDS011;7960;50.908;4.204;2023-04-24T06:27:20;26.03;;;15.03;;
15716;SDS011;7960;50.908;4.204;2023-04-24T06:29:47;23.93;;;14.13;;
15716;SDS011;7960;50.908;4.204;2023-04-24T06:32:20;23.33;;;13.97;;
15716;SDS011;7960;50.908;4.204;2023-04-24T06:34:48;23.47;;;13.50;;
15716;SDS011;7960;50.908;4.204;2023-04-24T06:37:15;21.77;;;14.27;;
15716;SDS011;7960;50.908;4.204;2023-04-24T06:39:42;23.47;;;14.43;;
15716;SDS011;7960;50.908;4.204;2023-04-24T06:42:10;23.37;;;15.03;;
15716;SDS011;7960;50.908;4.204;2023-04-24T06:44:36;29.27;;;15.53;;
15716;SDS011;7960;50.908;4.204;2023-04-24T06:47:06;27.73;;;14.80;;
15716;SDS011;7960;50.908;4.204;2023-04-24T06:49:35;26.80;;;15.63;;
15716;SDS011;7960;50.908;4.204;2023-04-24T06:52:03;26.13;;;17.07;;
15716;SDS011;7960;50.908;4.204;2023-04-24T06:54:30;28.20;;;16.20;;
15716;SDS011;7960;50.908;4.204;2023-04-24T06:56:57;29.87;;;15.43;;
15716;SDS011;7960;50.908;4.204;2023-04-24T06:59:25;24.77;;;16.10;;
15716;SDS011;7960;50.908;4.204;2023-04-24T07:01:53;28.77;;;13.70;;
15716;SDS011;7960;50.908;4.204;2023-04-24T07:04:20;24.50;;;14.50;;
15716;SDS011;7960;50.908;4.204;2023-04-24T07:06:48;22.53;;;13.90;;
15716;SDS011;7960;50.908;4.204;2023-04-24T07:09:16;21.33;;;13.63;;
15716;SDS011;7960;50.908;4.204;2023-04-24T07:11:43;20.00;;;13.03;;
15716;SDS011;7960;50.908;4.204;2023-04-24T07:14:10;26.07;;;14.80;;
15716;SDS011;7960;50.908;4.204;2023-04-24T07:16:37;20.73;;;13.00;;
15716;SDS011;7960;50.908;4.204;2023-04-24T07:19:04;28.43;;;13.20;;
15716;SDS011;7960;50.908;4.204;2023-04-24T07:21:32;23.07;;;13.03;;
15716;SDS011;7960;50.908;4.204;2023-04-24T07:24:00;19.47;;;12.90;;
15716;SDS011;7960;50.908;4.204;2023-04-24T07:26:28;19.90;;;11.77;;
15716;SDS011;7960;50.908;4.204;2023-04-24T07:28:55;19.60;;;11.23;;
15716;SDS011;7960;50.908;4.204;2023-04-24T07:31:23;15.10;;;10.70;;
15716;SDS011;7960;50.908;4.204;2023-04-24T07:33:50;18.90;;;11.37;;
15716;SDS011;7960;50.908;4.204;2023-04-24T07:36:17;20.70;;;11.63;;
15716;SDS011;7960;50.908;4.204;2023-04-24T07:38:44;19.30;;;11.23;;
15716;SDS011;7960;50.908;4.204;2023-04-24T07:41:13;19.83;;;11.67;;
15716;SDS011;7960;50.908;4.204;2023-04-24T07:43:40;22.63;;;12.43;;
15716;SDS011;7960;50.908;4.204;2023-04-24T07:46:07;21.20;;;12.17;;
15716;SDS011;7960;50.908;4.204;2023-04-24T07:48:35;25.73;;;13.10;;
15716;SDS011;7960;50.908;4.204;2023-04-24T07:51:02;21.60;;;13.33;;
15716;SDS011;7960;50.908;4.204;2023-04-24T07:53:29;23.20;;;11.57;;
15716;SDS011;7960;50.908;4.204;2023-04-24T07:55:56;18.47;;;10.60;;
15716;SDS011;7960;50.908;4.204;2023-04-24T07:58:24;19.83;;;10.10;;
15716;SDS011;7960;50.908;4.204;2023-04-24T08:00:51;18.57;;;9.87;;
15716;SDS011;7960;50.908;4.204;2023-04-24T08:03:18;19.10;;;10.23;;
15716;SDS011;7960;50.908;4.204;2023-04-24T08:05:45;19.03;;;10.03;;
15716;SDS011;7960;50.908;4.204;2023-04-24T08:08:12;19.17;;;9.43;;
15716;SDS011;7960;50.908;4.204;2023-04-24T08:10:39;15.33;;;9.90;;
15716;SDS011;7960;50.908;4.204;2023-04-24T08:13:06;17.60;;;10.23;;
15716;SDS011;7960;50.908;4.204;2023-04-24T08:15:35;14.43;;;9.00;;
15716;SDS011;7960;50.908;4.204;2023-04-24T08:18:02;16.00;;;9.27;;
15716;SDS011;7960;50.908;4.204;2023-04-24T08:20:29;17.27;;;8.87;;
15716;SDS011;7960;50.908;4.204;2023-04-24T08:22:56;15.50;;;8.53;;
15716;SDS011;7960;50.908;4.204;2023-04-24T08:25:23;13.97;;;8.17;;
15716;SDS011;7960;50.908;4.204;2023-04-24T08:27:50;16.70;;;8.67;;
15716;SDS011;7960;50.908;4.204;2023-04-24T08:30:17;14.77;;;7.93;;
15716;SDS011;7960;50.908;4.204;2023-04-24T08:32:47;15.93;;;7.90;;
15716;SDS011;7960;50.908;4.204;2023-04-24T08:35:14;13.67;;;7.27;;
15716;SDS011;7960;50.908;4.204;2023-04-24T08:37:41;15.83;;;8.67;;
15716;SDS011;7960;50.908;4.204;2023-04-24T08:40:10;12.73;;;7.20;;
15716;SDS011;7960;50.908;4.204;2023-04-24T08:42:39;13.30;;;7.67;;
15716;SDS011;7960;50.908;4.204;2023-04-24T08:45:09;13.83;;;7.50;;
15716;SDS011;7960;50.908;4.204;2023-04-24T08:47:37;17.27;;;7.30;;
15716;SDS011;7960;50.908;4.204;2023-04-24T08:50:07;20.57;;;7.17;;
15716;SDS011;7960;50.908;4.204;2023-04-24T08:52:35;11.63;;;6.83;;
15716;SDS011;7960;50.908;4.204;2023-04-24T08:55:02;12.50;;;6.77;;
15716;SDS011;7960;50.908;4.204;2023-04-24T08:57:31;16.83;;;6.67;;
15716;SDS011;7960;50.908;4.204;2023-04-24T09:00:01;12.97;;;6.33;;
15716;SDS011;7960;50.908;4.204;2023-04-24T09:02:29;10.70;;;6.67;;
15716;SDS011;7960;50.908;4.204;2023-04-24T09:04:59;10.80;;;5.17;;
15716;SDS011;7960;50.908;4.204;2023-04-24T09:07:29;9.57;;;5.13;;
15716;SDS011;7960;50.908;4.204;2023-04-24T09:09:58;10.00;;;5.20;;
15716;SDS011;7960;50.908;4.204;2023-04-24T09:12:27;9.17;;;5.37;;
15716;SDS011;7960;50.908;4.204;2023-04-24T09:14:54;12.43;;;5.63;;
15716;SDS011;7960;50.908;4.204;2023-04-24T09:17:23;9.57;;;5.10;;
15716;SDS011;7960;50.908;4.204;2023-04-24T09:19:52;9.83;;;5.70;;
15716;SDS011;7960;50.908;4.204;2023-04-24T09:22:19;11.37;;;5.30;;
15716;SDS011;7960;50.908;4.204;2023-04-24T09:24:48;12.17;;;5.50;;
15716;SDS011;7960;50.908;4.204;2023-04-24T09:27:28;10.83;;;5.40;;
15716;SDS011;7960;50.908;4.204;2023-04-24T09:29:55;10.13;;;5.23;;
15716;SDS011;7960;50.908;4.204;2023-04-24T09:32:22;12.03;;;5.97;;
15716;SDS011;7960;50.908;4.204;2023-04-24T09:35:04;10.70;;;5.53;;
15716;SDS011;7960;50.908;4.204;2023-04-24T09:37:35;11.40;;;5.10;;
15716;SDS011;7960;50.908;4.204;2023-04-24T09:40:14;8.03;;;4.83;;
15716;SDS011;7960;50.908;4.204;2023-04-24T09:42:45;9.23;;;5.33;;
15716;SDS011;7960;50.908;4.204;2023-04-24T09:45:17;6.33;;;4.70;;
15716;SDS011;7960;50.908;4.204;2023-04-24T09:47:44;11.43;;;5.83;;
15716;SDS011;7960;50.908;4.204;2023-04-24T09:50:12;11.53;;;4.63;;
15716;SDS011;7960;50.908;4.204;2023-04-24T09:52:41;7.37;;;4.40;;
15716;SDS011;7960;50.908;4.204;2023-04-24T09:55:18;7.43;;;4.47;;
15716;SDS011;7960;50.908;4.204;2023-04-24T09:57:49;7.80;;;4.43;;
15716;SDS011;7960;50.908;4.204;2023-04-24T10:00:19;7.10;;;4.63;;
15716;SDS011;7960;50.908;4.204;2023-04-24T10:02:50;8.70;;;4.57;;
15716;SDS011;7960;50.908;4.204;2023-04-24T10:05:18;8.00;;;4.77;;
15716;SDS011;7960;50.908;4.204;2023-04-24T10:07:48;8.60;;;4.93;;
15716;SDS011;7960;50.908;4.204;2023-04-24T10:10:17;8.90;;;4.70;;
15716;SDS011;7960;50.908;4.204;2023-04-24T10:12:44;8.80;;;4.90;;
15716;SDS011;7960;50.908;4.204;2023-04-24T10:15:12;11.53;;;4.70;;
15716;SDS011;7960;50.908;4.204;2023-04-24T10:17:40;7.70;;;4.57;;
15716;SDS011;7960;50.908;4.204;2023-04-24T10:20:08;9.63;;;4.80;;
15716;SDS011;7960;50.908;4.204;2023-04-24T10:22:36;7.87;;;5.23;;
15716;SDS011;7960;50.908;4.204;2023-04-24T10:25:04;6.27;;;4.63;;
15716;SDS011;7960;50.908;4.204;2023-04-24T10:27:33;6.83;;;4.80;;
15716;SDS011;7960;50.908;4.204;2023-04-24T10:30:02;6.87;;;5.13;;
15716;SDS011;7960;50.908;4.204;2023-04-24T10:32:29;9.07;;;5.03;;
15716;SDS011;7960;50.908;4.204;2023-04-24T10:34:56;9.63;;;5.33;;
15716;SDS011;7960;50.908;4.204;2023-04-24T10:37:24;7.33;;;5.00;;
15716;SDS011;7960;50.908;4.204;2023-04-24T10:39:52;10.50;;;4.90;;
15716;SDS011;7960;50.908;4.204;2023-04-24T10:42:19;7.03;;;4.97;;
15716;SDS011;7960;50.908;4.204;2023-04-24T10:44:49;7.27;;;5.10;;
15716;SDS011;7960;50.908;4.204;2023-04-24T10:47:16;8.70;;;4.70;;
15716;SDS011;7960;50.908;4.204;2023-04-24T10:49:43;9.57;;;5.00;;
15716;SDS011;7960;50.908;4.204;2023-04-24T10:52:10;8.67;;;4.80;;
15716;SDS011;7960;50.908;4.204;2023-04-24T10:54:41;4.97;;;4.43;;
15716;SDS011;7960;50.908;4.204;2023-04-24T10:57:26;9.60;;;5.00;;
15716;SDS011;7960;50.908;4.204;2023-04-24T11:00:12;9.00;;;5.13;;
15716;SDS011;7960;50.908;4.204;2023-04-24T11:02:41;8.73;;;5.43;;
15716;SDS011;7960;50.908;4.204;2023-04-24T11:05:14;10.93;;;4.97;;
15716;SDS011;7960;50.908;4.204;2023-04-24T11:10:39;8.67;;;5.63;;
15716;SDS011;7960;50.908;4.204;2023-04-24T11:13:08;10.30;;;5.93;;
15716;SDS011;7960;50.908;4.204;2023-04-24T11:15:36;10.00;;;5.90;;
15716;SDS011;7960;50.908;4.204;2023-04-24T11:18:03;12.77;;;6.23;;
15716;SDS011;7960;50.908;4.204;2023-04-24T11:20:30;10.03;;;5.53;;
15716;SDS011;7960;50.908;4.204;2023-04-24T11:23:00;9.50;;;5.70;;
15716;SDS011;7960;50.908;4.204;2023-04-24T11:25:31;7.27;;;5.30;;
15716;SDS011;7960;50.908;4.204;2023-04-24T11:28:04;7.87;;;5.20;;
15716;SDS011;7960;50.908;4.204;2023-04-24T11:30:32;9.53;;;5.80;;
15716;SDS011;7960;50.908;4.204;2023-04-24T11:33:04;10.33;;;6.30;;
15716;SDS011;7960;50.908;4.204;2023-04-24T11:35:34;7.77;;;5.33;;
15716;SDS011;7960;50.908;4.204;2023-04-24T11:38:05;8.43;;;5.80;;
15716;SDS011;7960;50.908;4.204;2023-04-24T11:40:33;9.63;;;5.43;;
15716;SDS011;7960;50.908;4.204;2023-04-24T11:43:00;7.73;;;5.47;;
15716;SDS011;7960;50.908;4.204;2023-04-24T11:45:29;8.93;;;6.10;;
15716;SDS011;7960;50.908;4.204;2023-04-24T11:47:57;13.33;;;5.70;;
15716;SDS011;7960;50.908;4.204;2023-04-24T11:50:26;8.97;;;5.90;;
15716;SDS011;7960;50.908;4.204;2023-04-24T11:52:54;7.73;;;6.17;;
15716;SDS011;7960;50.908;4.204;2023-04-24T11:55:23;11.47;;;5.93;;
15716;SDS011;7960;50.908;4.204;2023-04-24T11:57:53;10.13;;;5.80;;
15716;SDS011;7960;50.908;4.204;2023-04-24T12:00:23;12.00;;;5.83;;
15716;SDS011;7960;50.908;4.204;2023-04-24T12:02:52;7.97;;;5.70;;
15716;SDS011;7960;50.908;4.204;2023-04-24T12:05:31;5.87;;;4.93;;
15716;SDS011;7960;50.908;4.204;2023-04-24T12:07:59;11.73;;;5.80;;
15716;SDS011;7960;50.908;4.204;2023-04-24T12:10:27;8.00;;;5.50;;
15716;SDS011;7960;50.908;4.204;2023-04-24T12:12:56;9.93;;;5.97;;
15716;SDS011;7960;50.908;4.204;2023-04-24T12:15:25;7.80;;;5.63;;
15716;SDS011;7960;50.908;4.204;2023-04-24T12:17:52;7.63;;;5.33;;
15716;SDS011;7960;50.908;4.204;2023-04-24T12:20:23;7.77;;;5.83;;
15716;SDS011;7960;50.908;4.204;2023-04-24T12:22:53;8.83;;;5.93;;
15716;SDS011;7960;50.908;4.204;2023-04-24T12:25:21;9.33;;;5.30;;
15716;SDS011;7960;50.908;4.204;2023-04-24T12:27:52;7.40;;;5.63;;
15716;SDS011;7960;50.908;4.204;2023-04-24T12:30:21;10.97;;;5.50;;
15716;SDS011;7960;50.908;4.204;2023-04-24T12:32:53;5.17;;;4.67;;
15716;SDS011;7960;50.908;4.204;2023-04-24T12:35:20;10.33;;;5.40;;
15716;SDS011;7960;50.908;4.204;2023-04-24T12:37:48;10.83;;;5.40;;
15716;SDS011;7960;50.908;4.204;2023-04-24T12:40:18;7.43;;;4.93;;
15716;SDS011;7960;50.908;4.204;2023-04-24T12:42:47;6.20;;;4.67;;
15716;SDS011;7960;50.908;4.204;2023-04-24T12:45:16;8.37;;;4.67;;
15716;SDS011;7960;50.908;4.204;2023-04-24T12:47:44;9.23;;;4.63;;
15716;SDS011;7960;50.908;4.204;2023-04-24T12:50:12;6.93;;;4.53;;
15716;SDS011;7960;50.908;4.204;2023-04-24T12:52:40;8.20;;;4.20;;
15716;SDS011;7960;50.908;4.204;2023-04-24T12:55:08;7.03;;;4.50;;
15716;SDS011;7960;50.908;4.204;2023-04-24T12:57:38;8.43;;;4.60;;
15716;SDS011;7960;50.908;4.204;2023-04-24T13:00:06;6.23;;;3.93;;
15716;SDS011;7960;50.908;4.204;2023-04-24T13:02:35;8.37;;;4.57;;
15716;SDS011;7960;50.908;4.204;2023-04-24T13:05:02;5.47;;;3.70;;
15716;SDS011;7960;50.908;4.204;2023-04-24T13:07:29;7.20;;;4.40;;
15716;SDS011;7960;50.908;4.204;2023-04-24T13:09:56;6.73;;;4.33;;
15716;SDS011;7960;50.908;4.204;2023-04-24T13:12:24;5.37;;;4.00;;
15716;SDS011;7960;50.908;4.204;2023-04-24T13:14:53;4.57;;;3.53;;
15716;SDS011;7960;50.908;4.204;2023-04-24T13:17:21;5.97;;;3.37;;
15716;SDS011;7960;50.908;4.204;2023-04-24T13:19:49;7.00;;;3.60;;
15716;SDS011;7960;50.908;4.204;2023-04-24T13:22:17;8.13;;;3.67;;
15716;SDS011;7960;50.908;4.204;2023-04-24T13:24:44;5.47;;;3.37;;
15716;SDS011;7960;50.908;4.204;2023-04-24T13:27:13;6.00;;;3.40;;
15716;SDS011;7960;50.908;4.204;2023-04-24T13:29:40;4.47;;;3.30;;
15716;SDS011;7960;50.908;4.204;2023-04-24T13:32:09;3.77;;;2.90;;
15716;SDS011;7960;50.908;4.204;2023-04-24T13:34:36;4.70;;;3.20;;
15716;SDS011;7960;50.908;4.204;2023-04-24T13:37:04;3.73;;;2.90;;
15716;SDS011;7960;50.908;4.204;2023-04-24T13:39:33;3.90;;;3.00;;
15716;SDS011;7960;50.908;4.204;2023-04-24T13:42:00;3.93;;;2.60;;
15716;SDS011;7960;50.908;4.204;2023-04-24T13:44:27;4.63;;;2.33;;
15716;SDS011;7960;50.908;4.204;2023-04-24T13:46:54;4.50;;;2.30;;
15716;SDS011;7960;50.908;4.204;2023-04-24T13:49:24;4.37;;;2.37;;
15716;SDS011;7960;50.908;4.204;2023-04-24T13:51:52;4.03;;;2.57;;
15716;SDS011;7960;50.908;4.204;2023-04-24T13:54:19;6.30;;;3.20;;
15716;SDS011;7960;50.908;4.204;2023-04-24T13:56:48;6.80;;;3.20;;
15716;SDS011;7960;50.908;4.204;2023-04-24T13:59:15;7.10;;;3.90;;
15716;SDS011;7960;50.908;4.204;2023-04-24T14:01:42;6.17;;;2.97;;
15716;SDS011;7960;50.908;4.204;2023-04-24T14:04:10;5.73;;;3.47;;
15716;SDS011;7960;50.908;4.204;2023-04-24T14:06:38;6.07;;;3.10;;
15716;SDS011;7960;50.908;4.204;2023-04-24T14:09:05;2.97;;;2.50;;
15716;SDS011;7960;50.908;4.204;2023-04-24T14:11:33;4.77;;;2.80;;
15716;SDS011;7960;50.908;4.204;2023-04-24T14:14:00;4.53;;;3.00;;
15716;SDS011;7960;50.908;4.204;2023-04-24T14:16:28;4.10;;;2.80;;
15716;SDS011;7960;50.908;4.204;2023-04-24T14:18:55;5.63;;;3.00;;
15716;SDS011;7960;50.908;4.204;2023-04-24T14:21:22;3.90;;;2.70;;
15716;SDS011;7960;50.908;4.204;2023-04-24T14:23:50;4.90;;;2.83;;
15716;SDS011;7960;50.908;4.204;2023-04-24T14:26:17;4.43;;;2.83;;
15716;SDS011;7960;50.908;4.204;2023-04-24T14:28:45;3.87;;;2.70;;
15716;SDS011;7960;50.908;4.204;2023-04-24T14:31:12;4.10;;;2.60;;
15716;SDS011;7960;50.908;4.204;2023-04-24T14:33:39;4.27;;;2.53;;
15716;SDS011;7960;50.908;4.204;2023-04-24T14:36:06;4.73;;;2.80;;
15716;SDS011;7960;50.908;4.204;2023-04-24T14:38:33;3.83;;;2.33;;
15716;SDS011;7960;50.908;4.204;2023-04-24T14:41:02;3.60;;;2.40;;
15716;SDS011;7960;50.908;4.204;2023-04-24T14:43:35;4.50;;;2.40;;
15716;SDS011;7960;50.908;4.204;2023-04-24T14:46:02;3.97;;;2.57;;
15716;SDS011;7960;50.908;4.204;2023-04-24T14:48:29;3.37;;;2.00;;
15716;SDS011;7960;50.908;4.204;2023-04-24T14:50:56;3.33;;;2.20;;
15716;SDS011;7960;50.908;4.204;2023-04-24T14:53:23;4.63;;;2.50;;